Colonsay, Canada
Current Conditions -  °F | °C
As of 12:00 PM on Monday 20 Oct 2014 (Local Time) from CYXE Reporting Station
Scattered Clouds Scattered Clouds  
Wind Chill: 63°   Ceiling: Unl
Heat Index: 63°   Visibility: 15mi
Dew Point: 43°   Wind: 10mph
Humidity: 48%   Direction: 190°S
Pressure: 29.73"   Gusts: NA
Location:  51.97°N, 105.87°W
Report Text: CYXE 201800Z 19009KT 15SM SCT280 17/06 A2973 RMK CI3 SLP078 DENSITY ALT 2400FT
Loading
Personal Weather Stations






























Interactive Weather Map New forecast layout! Learn more

10-Day Weather Forecast

Advertisements
Track Severe Weather on mobile